This is the latest recevied weather packets stored in our database for station/object KF7MJQ-10. If no packets are shown the sender has not sent any weather packets the latest 10 day(s).
| Time | Temp. | Humidity | Pressure | Rain* | Wind** | Luminosity | Snow |
|---|---|---|---|---|---|---|---|
| 1778034326 | 14.44° C | 1% | 1016.1 hPa | 0 mm | - | - | - |
| 1778034025 | 13.89° C | 1% | 1016.1 hPa | 0 mm | - | - | - |
| 1778033726 | 14.44° C | 1% | 1016.1 hPa | 0 mm | - | - | - |
| 1778032805 | 14.44° C | 1% | 1016.2 hPa | 0 mm | - | - | - |
| 1778032259 | 14.44° C | 1% | 1016.2 hPa | 0 mm | - | - | - |
| 1778031958 | 14.44° C | 1% | 1016.1 hPa | 0 mm | - | - | - |
| 1778030442 | 15° C | 1% | 1016.2 hPa | 0 mm | - | - | - |
| 1778029835 | 15° C | 1% | 1016.2 hPa | 0 mm | - | - | - |
| 1778027122 | 15.56° C | 1% | 1016.2 hPa | 0 mm | - | - | - |
| 1778026821 | 16.11° C | 1% | 1016.2 hPa | 0 mm | - | - | - |
| 1778018130 | 16.67° C | 1% | 1016.8 hPa | 0 mm | - | - | - |
| 1778014236 | 16.67° C | 1% | 1016.8 hPa | 0 mm | - | - | - |
| 1778007654 | 17.22° C | 1% | 1016.7 hPa | 0 mm | - | - | - |
| 1778007351 | 16.67° C | 4% | 1016.7 hPa | 0 mm | - | - | - |
| 1778006749 | 16.67° C | 1% | 1016.7 hPa | 0 mm | - | - | - |
| 1778002238 | 15° C | 1% | 1016.3 hPa | 0 mm | - | - | - |
| 1777998646 | 13.89° C | 1% | 1015.8 hPa | 0 mm | - | - | - |
| 1777994451 | 12.78° C | 1% | 1015.3 hPa | 0 mm | - | - | - |
| 1777993848 | 12.78° C | 1% | 1015.3 hPa | 0 mm | - | - | - |
| 1777993547 | 12.78° C | 1% | 1015.2 hPa | 0 mm | - | - | - |
| 1777992630 | 12.78° C | 1% | 1015 hPa | 0 mm | - | - | - |
| 1777992028 | 12.78° C | 1% | 1014.9 hPa | 0 mm | - | - | - |
| 1777991101 | 12.22° C | 1% | 1014.8 hPa | 0 mm | - | - | - |
| 1777985743 | - | - | 1014.2 hPa | 0 mm | - | - | - |
| 1777984537 | - | - | 1014.2 hPa | 0 mm | - | - | - |
* Rain latest hour (hover to see other rain measurements)
** Current wind speed in m/s (hover to see current wind gust speed)